createdAt,value
2023-03-13T00:01:14.008Z,9.55
2023-03-13T00:03:41.803Z,10.20
2023-03-13T00:06:11.266Z,10.75
2023-03-13T00:08:39.995Z,17.70
2023-03-13T00:11:09.384Z,13.65
2023-03-13T00:13:37.990Z,12.35
2023-03-13T00:16:08.181Z,10.18
2023-03-13T00:18:36.458Z,7.88
2023-03-13T00:21:06.491Z,13.10
2023-03-13T00:23:36.910Z,11.57
2023-03-13T00:26:08.442Z,10.70
2023-03-13T00:28:37.764Z,12.88
2023-03-13T00:31:07.839Z,9.80
2023-03-13T00:33:36.423Z,9.48
2023-03-13T00:36:06.462Z,14.43
2023-03-13T00:38:36.167Z,9.68
2023-03-13T00:41:05.502Z,10.70
2023-03-13T00:43:33.945Z,11.63
2023-03-13T00:46:02.492Z,13.65
2023-03-13T00:48:31.177Z,13.27
2023-03-13T00:50:58.888Z,9.85
2023-03-13T00:53:26.720Z,15.80
2023-03-13T00:55:57.564Z,10.55
2023-03-13T00:58:26.469Z,7.68
2023-03-13T01:00:55.188Z,10.50
2023-03-13T01:03:25.331Z,7.03
2023-03-13T01:05:59.518Z,9.60
2023-03-13T01:08:27.870Z,15.95
2023-03-13T01:11:01.277Z,14.18
2023-03-13T01:13:29.900Z,7.30
2023-03-13T01:15:57.828Z,8.10
2023-03-13T01:18:25.605Z,12.85
2023-03-13T01:20:54.183Z,5.18
2023-03-13T01:23:21.903Z,11.90
2023-03-13T01:25:49.655Z,11.18
2023-03-13T01:28:18.738Z,7.00
2023-03-13T01:30:46.435Z,10.77
2023-03-13T01:33:14.358Z,13.00
2023-03-13T01:35:42.222Z,8.45
2023-03-13T01:38:10.369Z,8.65
2023-03-13T01:40:42.805Z,13.15
2023-03-13T01:43:26.885Z,13.10
2023-03-13T01:46:04.298Z,11.20
2023-03-13T01:48:41.059Z,12.52
2023-03-13T01:51:12.565Z,10.02
2023-03-13T01:53:43.518Z,8.75
2023-03-13T01:56:17.983Z,7.57
2023-03-13T01:58:48.593Z,9.75
2023-03-13T02:01:17.258Z,9.55
2023-03-13T02:03:45.606Z,12.25
2023-03-13T02:06:13.588Z,7.65
2023-03-13T02:08:45.028Z,13.75
2023-03-13T02:11:21.763Z,8.77
2023-03-13T02:13:51.682Z,5.85
2023-03-13T02:16:21.271Z,12.30
2023-03-13T02:18:49.778Z,9.23
2023-03-13T02:21:26.189Z,7.28
2023-03-13T02:23:59.593Z,9.63
2023-03-13T02:26:28.756Z,17.33
2023-03-13T02:28:56.536Z,5.05
2023-03-13T02:31:24.505Z,11.25
2023-03-13T02:33:52.304Z,9.82
2023-03-13T02:36:20.862Z,8.68
2023-03-13T02:38:54.175Z,15.23
2023-03-13T02:41:23.630Z,10.80
2023-03-13T02:43:52.733Z,4.78
2023-03-13T02:46:22.106Z,7.47
2023-03-13T02:48:51.790Z,6.97
2023-03-13T02:51:26.084Z,6.47
2023-03-13T02:53:56.552Z,7.82
2023-03-13T02:56:26.534Z,7.15
2023-03-13T02:58:55.695Z,4.55
2023-03-13T03:01:23.428Z,9.07
2023-03-13T03:03:51.196Z,11.40
2023-03-13T03:06:19.005Z,4.18
2023-03-13T03:08:46.759Z,12.65
2023-03-13T03:11:14.742Z,5.95
2023-03-13T03:13:42.460Z,8.55
2023-03-13T03:16:15.110Z,9.95
2023-03-13T03:18:42.942Z,5.35
2023-03-13T03:21:11.019Z,3.15
2023-03-13T03:23:39.170Z,8.02
2023-03-13T03:26:08.003Z,9.80
2023-03-13T03:28:35.850Z,4.50
2023-03-13T03:31:06.228Z,4.35
2023-03-13T03:33:35.358Z,8.48
2023-03-13T03:36:05.035Z,4.40
2023-03-13T03:38:32.896Z,4.60
2023-03-13T03:41:00.715Z,8.68
2023-03-13T03:43:28.472Z,7.45
2023-03-13T03:45:56.287Z,4.47
2023-03-13T03:48:24.156Z,6.00
2023-03-13T03:50:53.206Z,8.70
2023-03-13T03:53:20.938Z,8.05
2023-03-13T03:55:48.647Z,5.10
2023-03-13T03:58:16.402Z,3.67
2023-03-13T04:00:44.802Z,4.45
2023-03-13T04:03:12.658Z,4.75
2023-03-13T04:05:40.918Z,4.95
2023-03-13T04:08:10.881Z,2.92
2023-03-13T04:10:38.719Z,3.20
2023-03-13T04:13:06.541Z,4.90
2023-03-13T04:15:34.329Z,2.83
2023-03-13T04:18:02.068Z,3.85
2023-03-13T04:20:29.850Z,4.47
2023-03-13T04:22:57.573Z,6.85
2023-03-13T04:25:26.665Z,4.72
2023-03-13T04:27:54.401Z,6.35
2023-03-13T04:30:22.170Z,7.25
2023-03-13T04:32:51.032Z,6.68
2023-03-13T04:35:19.042Z,2.35
2023-03-13T04:37:46.888Z,3.17
2023-03-13T04:40:14.777Z,6.25
2023-03-13T04:42:44.081Z,4.13
2023-03-13T04:45:13.096Z,4.20
2023-03-13T04:47:40.972Z,4.93
2023-03-13T04:50:09.488Z,2.75
2023-03-13T04:52:37.307Z,1.55
2023-03-13T04:55:05.615Z,7.57
2023-03-13T04:57:33.414Z,2.80
2023-03-13T05:00:02.455Z,2.70
2023-03-13T05:02:30.205Z,3.83
2023-03-13T05:04:58.001Z,1.92
2023-03-13T05:07:26.058Z,3.90
2023-03-13T05:09:53.816Z,6.75
2023-03-13T05:12:21.558Z,4.95
2023-03-13T05:14:50.235Z,2.90
2023-03-13T05:17:19.283Z,3.40
2023-03-13T05:19:47.019Z,3.42
2023-03-13T05:22:14.753Z,5.40
2023-03-13T05:24:42.565Z,6.85
2023-03-13T05:27:10.317Z,2.45
2023-03-13T05:29:39.191Z,4.25
2023-03-13T05:32:07.335Z,3.63
2023-03-13T05:34:36.389Z,1.60
2023-03-13T05:37:04.295Z,2.72
2023-03-13T05:39:32.043Z,3.20
2023-03-13T05:41:59.741Z,3.03
2023-03-13T05:44:27.845Z,3.63
2023-03-13T05:46:55.586Z,4.03
2023-03-13T05:49:23.360Z,3.08
2023-03-13T05:51:52.477Z,4.65
2023-03-13T05:54:20.257Z,3.50
2023-03-13T05:56:48.714Z,5.00
2023-03-13T05:59:16.550Z,2.13
2023-03-13T06:01:44.274Z,4.45
2023-03-13T06:04:12.384Z,2.65
2023-03-13T06:06:40.173Z,1.80
2023-03-13T06:09:10.919Z,3.03
2023-03-13T06:11:38.704Z,2.58
2023-03-13T06:14:06.477Z,2.83
2023-03-13T06:16:34.237Z,3.17
2023-03-13T06:19:02.195Z,2.38
2023-03-13T06:21:30.292Z,3.83
2023-03-13T06:23:58.013Z,3.20
2023-03-13T06:26:27.347Z,1.10
2023-03-13T06:28:55.133Z,2.35
2023-03-13T06:31:23.074Z,2.00
2023-03-13T06:33:54.431Z,4.90
2023-03-13T06:36:22.529Z,3.85
2023-03-13T06:38:50.373Z,4.20
2023-03-13T06:41:18.270Z,4.80
2023-03-13T06:43:47.324Z,2.38
2023-03-13T06:46:19.427Z,3.85
2023-03-13T06:48:47.418Z,3.08
2023-03-13T06:51:17.047Z,3.53
2023-03-13T06:53:45.061Z,2.30
2023-03-13T06:56:12.920Z,1.75
2023-03-13T06:58:40.671Z,2.25
2023-03-13T07:01:11.677Z,1.65
2023-03-13T07:03:41.298Z,2.90
2023-03-13T07:06:10.776Z,2.72
2023-03-13T07:08:39.119Z,2.85
2023-03-13T07:11:08.695Z,3.08
2023-03-13T07:13:36.959Z,3.00
2023-03-13T07:16:06.700Z,1.55
2023-03-13T07:18:36.496Z,2.30
2023-03-13T07:21:06.000Z,1.92
2023-03-13T07:23:35.467Z,2.15
2023-03-13T07:26:05.232Z,1.52
2023-03-13T07:28:35.020Z,1.02
2023-03-13T07:31:05.714Z,3.95
2023-03-13T07:33:35.203Z,2.42
2023-03-13T07:36:03.384Z,5.40
2023-03-13T07:38:31.215Z,1.92
2023-03-13T07:40:59.445Z,1.60
2023-03-13T07:43:27.895Z,2.25
2023-03-13T07:45:57.177Z,1.00
2023-03-13T07:48:26.844Z,2.00
2023-03-13T07:50:57.507Z,1.55
2023-03-13T07:53:26.107Z,1.75
2023-03-13T07:55:58.697Z,2.42
2023-03-13T07:58:28.236Z,1.33
2023-03-13T08:00:56.046Z,1.45
2023-03-13T08:03:25.017Z,1.30
2023-03-13T08:06:00.971Z,1.25
2023-03-13T08:08:29.608Z,5.65
2023-03-13T08:11:01.245Z,3.22
2023-03-13T08:13:29.326Z,3.60
2023-03-13T08:16:07.956Z,4.05
2023-03-13T08:18:36.461Z,2.80
2023-03-13T08:21:07.964Z,2.85
2023-03-13T08:23:36.472Z,4.22
2023-03-13T08:26:06.528Z,2.67
2023-03-13T08:28:34.721Z,1.73
2023-03-13T08:31:08.655Z,3.28
2023-03-13T08:33:36.622Z,1.67
2023-03-13T08:36:14.970Z,5.00
2023-03-13T08:38:45.940Z,2.25
2023-03-13T08:41:14.549Z,1.95
2023-03-13T08:43:42.291Z,1.38
2023-03-13T08:46:10.163Z,3.05
2023-03-13T08:48:37.978Z,1.10
2023-03-13T08:51:07.195Z,1.90
2023-03-13T08:53:37.877Z,1.40
2023-03-13T08:56:06.601Z,1.13
2023-03-13T08:58:34.473Z,3.60
2023-03-13T09:01:05.282Z,4.75
2023-03-13T09:03:35.770Z,2.55
2023-03-13T09:06:06.439Z,3.25
2023-03-13T09:08:38.212Z,2.85
2023-03-13T09:11:10.552Z,3.75
2023-03-13T09:13:41.730Z,1.83
2023-03-13T09:16:12.902Z,3.72
2023-03-13T09:18:43.285Z,2.20
2023-03-13T09:21:15.666Z,1.38
2023-03-13T09:23:47.985Z,1.30
2023-03-13T09:26:19.945Z,2.13
2023-03-13T09:28:50.899Z,1.75
2023-03-13T09:31:22.364Z,1.20
2023-03-13T09:33:52.743Z,4.10
2023-03-13T09:36:24.239Z,2.42
2023-03-13T09:38:57.297Z,0.68
2023-03-13T09:41:31.952Z,3.75
2023-03-13T09:44:09.765Z,1.20
2023-03-13T09:46:45.043Z,1.50
2023-03-13T09:49:36.256Z,4.68
2023-03-13T09:52:16.630Z,3.90
2023-03-13T09:54:52.716Z,2.95
2023-03-13T09:57:26.308Z,0.98
2023-03-13T09:59:58.889Z,3.67
2023-03-13T10:02:30.992Z,2.50
2023-03-13T10:05:14.309Z,2.28
2023-03-13T10:07:42.081Z,2.63
2023-03-13T10:10:16.304Z,4.43
2023-03-13T10:12:47.011Z,1.38
2023-03-13T10:15:40.194Z,2.92
2023-03-13T10:18:16.711Z,2.67
2023-03-13T10:20:46.575Z,1.50
2023-03-13T10:23:20.557Z,1.83
2023-03-13T10:25:49.639Z,3.35
2023-03-13T10:28:20.200Z,2.10
2023-03-13T10:30:52.245Z,2.15
2023-03-13T10:33:25.154Z,1.30
2023-03-13T10:36:06.965Z,2.15
2023-03-13T10:38:45.123Z,1.60
2023-03-13T10:41:26.174Z,4.20
2023-03-13T10:43:55.872Z,3.40
2023-03-13T10:46:28.542Z,3.55
2023-03-13T10:48:57.932Z,3.30
2023-03-13T10:51:33.566Z,3.13
2023-03-13T10:54:01.296Z,3.65
2023-03-13T10:56:31.686Z,2.72
2023-03-13T10:58:59.418Z,2.40
2023-03-13T11:01:31.693Z,2.50
2023-03-13T11:04:01.175Z,3.35
2023-03-13T11:06:33.207Z,3.22
2023-03-13T11:09:05.023Z,2.05
2023-03-13T11:11:45.989Z,3.30
2023-03-13T11:14:19.691Z,5.00
2023-03-13T11:16:52.392Z,4.00
2023-03-13T11:19:36.081Z,2.65
2023-03-13T11:22:23.252Z,3.97
2023-03-13T11:24:59.074Z,6.18
2023-03-13T11:27:36.797Z,1.58
2023-03-13T11:30:17.540Z,2.00
2023-03-13T11:32:52.205Z,1.88
2023-03-13T11:35:36.096Z,2.05
2023-03-13T11:38:08.762Z,2.63
2023-03-13T11:40:40.852Z,2.20
2023-03-13T11:43:42.105Z,1.73
2023-03-13T11:46:32.035Z,1.90
2023-03-13T11:49:20.879Z,6.22
2023-03-13T11:52:01.974Z,2.05
2023-03-13T11:54:48.026Z,3.33
2023-03-13T11:57:22.604Z,3.75
2023-03-13T12:00:04.027Z,2.40
2023-03-13T12:02:37.193Z,3.08
2023-03-13T12:05:09.567Z,4.55
2023-03-13T12:07:42.051Z,2.17
2023-03-13T12:10:15.688Z,2.00
2023-03-13T12:12:50.663Z,1.73
2023-03-13T12:15:25.712Z,2.03
2023-03-13T12:17:57.738Z,2.35
2023-03-13T12:20:28.296Z,3.95
2023-03-13T12:23:02.139Z,2.97
2023-03-13T12:25:33.952Z,3.92
2023-03-13T12:28:16.398Z,2.47
2023-03-13T12:30:49.923Z,2.15
2023-03-13T12:33:25.070Z,2.03
2023-03-13T12:35:57.911Z,2.65
2023-03-13T12:38:30.844Z,3.05
2023-03-13T12:41:09.100Z,2.35
2023-03-13T12:43:40.915Z,2.38
2023-03-13T12:46:37.328Z,2.03
2023-03-13T12:49:23.077Z,2.60
2023-03-13T12:52:09.712Z,3.08
2023-03-13T12:54:57.804Z,4.63
2023-03-13T12:57:56.190Z,3.65
2023-03-13T13:00:26.695Z,2.55
2023-03-13T13:03:13.108Z,4.28
2023-03-13T13:05:40.909Z,2.95
2023-03-13T13:08:25.444Z,3.03
2023-03-13T13:10:53.414Z,1.70
2023-03-13T13:13:31.801Z,1.77
2023-03-13T13:16:03.276Z,1.63
2023-03-13T13:18:33.712Z,2.65
2023-03-13T13:21:26.450Z,2.40
2023-03-13T13:23:56.429Z,1.42
2023-03-13T13:26:51.525Z,1.25
2023-03-13T13:29:58.734Z,2.20
2023-03-13T13:32:41.825Z,2.60
2023-03-13T13:35:35.336Z,1.10
2023-03-13T13:38:28.987Z,1.08
2023-03-13T13:41:01.583Z,2.97
2023-03-13T13:43:33.655Z,1.88
2023-03-13T13:46:05.991Z,1.50
2023-03-13T13:48:35.725Z,2.15
2023-03-13T13:51:35.438Z,1.98
2023-03-13T13:54:04.401Z,2.95
2023-03-13T13:56:56.563Z,2.90
2023-03-13T13:59:32.608Z,1.80
2023-03-13T14:02:22.944Z,1.20
2023-03-13T14:05:00.824Z,0.98
2023-03-13T14:07:46.844Z,2.95
2023-03-13T14:10:30.004Z,1.02
2023-03-13T14:12:59.676Z,1.42
2023-03-13T14:15:28.789Z,1.05
2023-03-13T14:18:00.294Z,4.53
2023-03-13T14:20:31.988Z,1.63
2023-03-13T14:23:02.677Z,1.30
2023-03-13T14:25:43.417Z,3.33
2023-03-13T14:28:19.601Z,2.42
2023-03-13T14:30:48.486Z,1.85
2023-03-13T14:33:16.661Z,1.10
2023-03-13T14:35:44.975Z,1.30
2023-03-13T14:38:22.609Z,2.53
2023-03-13T14:40:51.807Z,2.08
2023-03-13T14:43:27.372Z,0.95
2023-03-13T14:45:55.975Z,3.33
2023-03-13T14:48:28.236Z,2.65
2023-03-13T14:51:14.838Z,2.28
2023-03-13T14:53:56.599Z,2.72
2023-03-13T14:56:33.496Z,3.10
2023-03-13T14:59:17.808Z,2.38
2023-03-13T15:01:46.179Z,2.78
2023-03-13T15:04:14.008Z,2.78
2023-03-13T15:06:41.815Z,3.28
2023-03-13T15:09:19.753Z,2.78
2023-03-13T15:11:55.946Z,3.60
2023-03-13T15:14:41.657Z,1.63
2023-03-13T15:17:20.534Z,0.80
2023-03-13T15:19:53.469Z,1.50
2023-03-13T15:22:26.988Z,1.48
2023-03-13T15:25:06.118Z,1.35
2023-03-13T15:27:35.113Z,1.42
2023-03-13T15:30:03.019Z,5.68
2023-03-13T15:32:33.773Z,3.83
2023-03-13T15:35:03.205Z,2.75
2023-03-13T15:37:31.986Z,3.67
2023-03-13T15:40:02.381Z,3.53
2023-03-13T15:42:30.190Z,1.95
2023-03-13T15:44:57.956Z,1.20
2023-03-13T15:47:27.155Z,2.45
2023-03-13T15:49:54.884Z,2.95
2023-03-13T15:52:23.481Z,1.77
2023-03-13T15:54:52.535Z,1.05
2023-03-13T15:57:26.349Z,1.50
2023-03-13T15:59:54.837Z,5.10
2023-03-13T16:02:24.468Z,3.47
2023-03-13T16:04:52.578Z,1.55
2023-03-13T16:07:21.937Z,2.42
2023-03-13T16:09:50.137Z,2.83
2023-03-13T16:12:17.894Z,3.83
2023-03-13T16:14:46.981Z,3.67
2023-03-13T16:17:17.108Z,2.70
2023-03-13T16:19:45.518Z,1.17
2023-03-13T16:22:13.737Z,1.67
2023-03-13T16:24:42.079Z,1.42
2023-03-13T16:27:15.101Z,3.28
2023-03-13T16:29:43.127Z,0.75
2023-03-13T16:32:14.073Z,1.00
2023-03-13T16:34:42.130Z,2.08
2023-03-13T16:37:14.791Z,0.70
2023-03-13T16:39:42.889Z,1.77
2023-03-13T16:42:10.812Z,1.25
2023-03-13T16:44:38.861Z,1.90
2023-03-13T16:47:17.660Z,0.68
2023-03-13T16:49:47.452Z,2.45
2023-03-13T16:52:16.487Z,1.48
2023-03-13T16:54:44.846Z,1.38
2023-03-13T16:57:13.678Z,0.82
2023-03-13T16:59:41.450Z,1.95
2023-03-13T17:02:16.416Z,0.85
2023-03-13T17:04:45.288Z,1.57
2023-03-13T17:07:19.725Z,2.17
2023-03-13T17:09:48.044Z,3.15
2023-03-13T17:12:16.102Z,1.20
2023-03-13T17:14:44.426Z,1.27
2023-03-13T17:17:14.149Z,1.17
2023-03-13T17:19:43.326Z,2.70
2023-03-13T17:22:12.638Z,2.55
2023-03-13T17:24:40.734Z,1.15
2023-03-13T17:27:12.870Z,2.13
2023-03-13T17:29:40.875Z,3.22
2023-03-13T17:32:10.965Z,2.60
2023-03-13T17:34:38.837Z,3.10
2023-03-13T17:37:17.119Z,3.25
2023-03-13T17:39:45.302Z,4.13
2023-03-13T17:42:13.372Z,5.72
2023-03-13T17:44:41.344Z,1.63
2023-03-13T17:47:14.102Z,4.07
2023-03-13T17:49:41.985Z,2.80
2023-03-13T17:52:14.615Z,2.55
2023-03-13T17:54:43.130Z,2.28
2023-03-13T17:57:16.073Z,3.20
2023-03-13T17:59:44.252Z,2.38
2023-03-13T18:02:13.466Z,2.25
2023-03-13T18:04:41.521Z,2.47
2023-03-13T18:07:17.875Z,6.38
2023-03-13T18:09:47.533Z,4.10
2023-03-13T18:12:15.925Z,6.43
2023-03-13T18:14:43.888Z,6.00
2023-03-13T18:17:17.620Z,4.60
2023-03-13T18:19:46.717Z,4.90
2023-03-13T18:22:17.806Z,3.35
2023-03-13T18:24:46.297Z,7.65
2023-03-13T18:27:16.089Z,4.88
2023-03-13T18:29:44.318Z,5.32
2023-03-13T18:32:14.560Z,7.47
2023-03-13T18:34:47.324Z,5.97
2023-03-13T18:37:29.279Z,3.63
2023-03-13T18:39:57.895Z,5.35
2023-03-13T18:42:26.763Z,4.28
2023-03-13T18:44:55.066Z,5.90
2023-03-13T18:47:27.144Z,5.18
2023-03-13T18:49:55.543Z,5.43
2023-03-13T18:52:24.672Z,9.00
2023-03-13T18:54:52.523Z,2.92
2023-03-13T18:57:20.896Z,5.82
2023-03-13T18:59:48.720Z,6.78
2023-03-13T19:02:18.337Z,2.50
2023-03-13T19:04:46.964Z,6.55
2023-03-13T19:07:16.836Z,4.43
2023-03-13T19:09:47.173Z,2.45
2023-03-13T19:12:16.332Z,3.28
2023-03-13T19:14:44.639Z,3.00
2023-03-13T19:17:18.637Z,4.55
2023-03-13T19:19:46.403Z,7.05
2023-03-13T19:22:15.226Z,4.15
2023-03-13T19:24:43.020Z,2.30
2023-03-13T19:27:15.091Z,6.22
2023-03-13T19:29:43.198Z,3.50
2023-03-13T19:32:14.591Z,4.35
2023-03-13T19:34:42.301Z,5.30
2023-03-13T19:37:11.606Z,4.50
2023-03-13T19:39:39.365Z,4.57
2023-03-13T19:42:08.068Z,5.35
2023-03-13T19:44:37.737Z,3.78
2023-03-13T19:47:06.386Z,5.70
2023-03-13T19:49:34.501Z,2.97
2023-03-13T19:52:02.272Z,2.60
2023-03-13T19:54:30.024Z,2.58
2023-03-13T19:56:58.550Z,0.80
2023-03-13T19:59:27.632Z,1.52
2023-03-13T20:01:56.945Z,4.20
2023-03-13T20:04:25.066Z,5.10
2023-03-13T20:06:52.876Z,8.35
2023-03-13T20:09:21.426Z,3.35
2023-03-13T20:11:49.216Z,2.20
2023-03-13T20:14:17.137Z,3.38
2023-03-13T20:16:47.276Z,1.90
2023-03-13T20:19:17.183Z,3.75
2023-03-13T20:21:46.449Z,2.80
2023-03-13T20:24:14.350Z,5.35
2023-03-13T20:26:42.607Z,1.70
2023-03-13T20:29:10.351Z,3.00
2023-03-13T20:31:38.165Z,3.30
2023-03-13T20:34:05.913Z,2.38
2023-03-13T20:36:35.018Z,3.70
2023-03-13T20:39:02.794Z,2.60
2023-03-13T20:41:31.103Z,4.15
2023-03-13T20:43:58.934Z,1.23
2023-03-13T20:46:27.046Z,2.83
2023-03-13T20:48:56.762Z,3.33
2023-03-13T20:51:25.649Z,1.83
2023-03-13T20:53:54.712Z,1.70
2023-03-13T20:56:23.028Z,0.98
2023-03-13T20:58:50.848Z,2.67
2023-03-13T21:01:19.734Z,5.30
2023-03-13T21:03:47.776Z,0.60
2023-03-13T21:06:17.582Z,1.15
2023-03-13T21:08:46.424Z,1.35
2023-03-13T21:11:17.052Z,0.90
2023-03-13T21:13:45.074Z,2.25
2023-03-13T21:16:13.991Z,1.20
2023-03-13T21:18:42.072Z,1.20
2023-03-13T21:21:16.999Z,1.70
2023-03-13T21:23:45.390Z,0.75
2023-03-13T21:26:15.706Z,2.78
2023-03-13T21:28:43.591Z,2.42
2023-03-13T21:31:12.930Z,3.55
2023-03-13T21:33:41.349Z,1.55
2023-03-13T21:36:10.383Z,1.23
2023-03-13T21:38:38.244Z,2.92
2023-03-13T21:41:08.901Z,1.58
2023-03-13T21:43:41.270Z,2.22
2023-03-13T21:46:09.779Z,1.10
2023-03-13T21:48:38.916Z,3.38
2023-03-13T21:51:07.615Z,2.20
2023-03-13T21:53:35.794Z,3.83
2023-03-13T21:56:03.681Z,1.65
2023-03-13T21:58:31.744Z,2.28
2023-03-13T22:01:01.153Z,3.80
2023-03-13T22:03:29.208Z,0.47
2023-03-13T22:05:57.033Z,0.63
2023-03-13T22:08:24.848Z,2.28
2023-03-13T22:10:54.745Z,0.68
2023-03-13T22:13:22.608Z,0.60
2023-03-13T22:15:50.620Z,0.90
2023-03-13T22:18:19.804Z,0.73
2023-03-13T22:20:47.523Z,1.05
2023-03-13T22:23:15.221Z,1.20
2023-03-13T22:25:43.835Z,1.50
2023-03-13T22:28:12.856Z,0.43
2023-03-13T22:30:41.080Z,1.02
2023-03-13T22:33:09.207Z,1.50
2023-03-13T22:35:39.221Z,0.50
2023-03-13T22:38:07.145Z,0.57
2023-03-13T22:40:35.408Z,1.45
2023-03-13T22:43:03.175Z,0.82
2023-03-13T22:45:32.094Z,1.73
2023-03-13T22:48:05.909Z,1.02
2023-03-13T22:50:33.817Z,1.55
2023-03-13T22:53:03.221Z,1.45
2023-03-13T22:55:32.387Z,1.23
2023-03-13T22:58:00.169Z,1.63
2023-03-13T23:00:27.998Z,0.55
2023-03-13T23:02:56.011Z,1.05
2023-03-13T23:05:24.039Z,0.85
2023-03-13T23:07:51.908Z,1.33
2023-03-13T23:10:21.153Z,1.52
2023-03-13T23:12:48.860Z,1.02
2023-03-13T23:15:16.705Z,1.10
2023-03-13T23:17:44.389Z,2.05
2023-03-13T23:20:13.742Z,1.65
2023-03-13T23:22:42.461Z,1.98
2023-03-13T23:25:11.976Z,1.48
2023-03-13T23:27:41.611Z,0.98
2023-03-13T23:30:14.373Z,2.30
2023-03-13T23:32:44.526Z,1.02
2023-03-13T23:35:13.787Z,1.45
2023-03-13T23:37:41.497Z,1.05
2023-03-13T23:40:11.782Z,1.73
2023-03-13T23:42:40.965Z,1.23
2023-03-13T23:45:09.432Z,0.88
2023-03-13T23:47:37.485Z,2.08
2023-03-13T23:50:06.249Z,1.20
2023-03-13T23:52:35.125Z,1.48
2023-03-13T23:55:02.997Z,2.25
2023-03-13T23:57:30.933Z,1.40
